createdAt,value
2024-03-03T00:00:14.608Z,2.12
2024-03-03T00:02:16.769Z,2.10
2024-03-03T00:04:18.473Z,2.06
2024-03-03T00:06:20.117Z,2.02
2024-03-03T00:08:24.689Z,1.98
2024-03-03T00:10:26.401Z,1.99
2024-03-03T00:12:28.486Z,2.00
2024-03-03T00:14:30.240Z,2.02
2024-03-03T00:16:34.668Z,2.04
2024-03-03T00:18:39.888Z,2.06
2024-03-03T00:20:42.195Z,2.06
2024-03-03T00:22:43.913Z,2.07
2024-03-03T00:24:45.665Z,2.03
2024-03-03T00:26:47.894Z,1.99
2024-03-03T00:28:49.998Z,1.96
2024-03-03T00:30:51.847Z,1.93
2024-03-03T00:32:53.994Z,1.93
2024-03-03T00:34:56.813Z,1.93
2024-03-03T00:36:58.630Z,1.93
2024-03-03T00:39:00.714Z,1.96
2024-03-03T00:41:04.103Z,1.96
2024-03-03T00:43:05.862Z,1.94
2024-03-03T00:45:07.728Z,1.95
2024-03-03T00:47:09.566Z,1.94
2024-03-03T00:49:11.294Z,1.91
2024-03-03T00:51:13.031Z,1.87
2024-03-03T00:53:15.224Z,1.83
2024-03-03T00:55:16.970Z,1.83
2024-03-03T00:57:19.677Z,1.86
2024-03-03T00:59:21.354Z,1.87
2024-03-03T01:01:23.181Z,1.89
2024-03-03T01:03:24.873Z,1.92
2024-03-03T01:05:26.662Z,1.95
2024-03-03T01:07:28.411Z,1.98
2024-03-03T01:09:30.518Z,1.99
2024-03-03T01:11:32.409Z,1.96
2024-03-03T01:13:34.219Z,1.94
2024-03-03T01:15:35.915Z,1.92
2024-03-03T01:17:37.671Z,1.93
2024-03-03T01:19:40.008Z,1.97
2024-03-03T01:21:42.225Z,2.00
2024-03-03T01:23:44.083Z,2.05
2024-03-03T01:25:46.075Z,2.07
2024-03-03T01:27:47.895Z,2.11
2024-03-03T01:29:49.606Z,2.13
2024-03-03T01:31:52.935Z,2.12
2024-03-03T01:33:54.690Z,2.10
2024-03-03T01:35:56.812Z,2.06
2024-03-03T01:37:58.511Z,2.05
2024-03-03T01:40:00.283Z,2.07
2024-03-03T01:42:02.012Z,2.09
2024-03-03T01:44:04.013Z,2.12
2024-03-03T01:46:05.779Z,2.14
2024-03-03T01:48:08.917Z,2.17
2024-03-03T01:50:11.379Z,2.18
2024-03-03T01:52:13.370Z,2.19
2024-03-03T01:54:16.249Z,2.17
2024-03-03T01:56:24.655Z,2.14
2024-03-03T01:58:29.115Z,2.13
2024-03-03T02:00:34.850Z,2.17
2024-03-03T02:02:40.460Z,2.22
2024-03-03T02:04:42.676Z,2.26
2024-03-03T02:06:44.411Z,2.30
2024-03-03T02:08:47.467Z,2.32
2024-03-03T02:10:50.793Z,2.35
2024-03-03T02:12:52.640Z,2.36
2024-03-03T02:14:54.746Z,2.36
2024-03-03T02:16:56.490Z,2.36
2024-03-03T02:18:58.343Z,2.37
2024-03-03T02:21:00.461Z,2.40
2024-03-03T02:23:02.588Z,2.43
2024-03-03T02:25:06.087Z,2.46
2024-03-03T02:27:08.065Z,2.49
2024-03-03T02:29:10.649Z,2.54
2024-03-03T02:31:12.381Z,2.56
2024-03-03T02:33:14.115Z,2.56
2024-03-03T02:35:16.217Z,2.55
2024-03-03T02:37:17.954Z,2.52
2024-03-03T02:39:19.878Z,2.47
2024-03-03T02:41:21.644Z,2.45
2024-03-03T02:43:23.393Z,2.43
2024-03-03T02:45:25.456Z,2.44
2024-03-03T02:47:27.488Z,2.47
2024-03-03T02:49:29.185Z,2.49
2024-03-03T02:51:31.115Z,2.54
2024-03-03T02:53:32.855Z,2.59
2024-03-03T02:55:34.545Z,2.62
2024-03-03T02:57:36.540Z,2.60
2024-03-03T02:59:39.050Z,2.56
2024-03-03T03:01:41.315Z,2.51
2024-03-03T03:03:43.380Z,2.49
2024-03-03T03:05:45.209Z,2.46
2024-03-03T03:07:46.899Z,2.45
2024-03-03T03:09:48.700Z,2.48
2024-03-03T03:11:50.466Z,2.49
2024-03-03T03:13:54.014Z,2.49
2024-03-03T03:15:56.226Z,2.50
2024-03-03T03:17:57.958Z,2.47
2024-03-03T03:20:00.584Z,2.42
2024-03-03T03:22:02.333Z,2.37
2024-03-03T03:24:04.348Z,2.33
2024-03-03T03:26:06.057Z,2.32
2024-03-03T03:28:07.724Z,2.35
2024-03-03T03:30:10.382Z,2.37
2024-03-03T03:32:12.281Z,2.37
2024-03-03T03:34:14.032Z,2.38
2024-03-03T03:36:15.841Z,2.34
2024-03-03T03:38:17.566Z,2.30
2024-03-03T03:40:19.440Z,2.27
2024-03-03T03:42:21.275Z,2.24
2024-03-03T03:44:23.099Z,2.24
2024-03-03T03:46:24.888Z,2.26
2024-03-03T03:48:26.606Z,2.28
2024-03-03T03:50:29.093Z,2.29
2024-03-03T03:52:30.800Z,2.32
2024-03-03T03:54:32.625Z,2.30
2024-03-03T03:56:35.584Z,2.28
2024-03-03T03:58:37.841Z,2.25
2024-03-03T04:00:39.622Z,2.24
2024-03-03T04:02:41.498Z,2.22
2024-03-03T04:04:43.756Z,2.22
2024-03-03T04:06:45.520Z,2.25
2024-03-03T04:08:47.238Z,2.31
2024-03-03T04:10:48.946Z,2.35
2024-03-03T04:12:50.727Z,2.36
2024-03-03T04:14:52.407Z,2.35
2024-03-03T04:16:54.233Z,2.32
2024-03-03T04:18:55.952Z,2.27
2024-03-03T04:20:57.627Z,2.23
2024-03-03T04:22:59.225Z,2.18
2024-03-03T04:25:01.181Z,2.19
2024-03-03T04:27:04.697Z,2.23
2024-03-03T04:29:06.463Z,2.25
2024-03-03T04:31:08.400Z,2.27
2024-03-03T04:33:10.351Z,2.28
2024-03-03T04:35:12.021Z,2.30
2024-03-03T04:37:13.824Z,2.28
2024-03-03T04:39:16.915Z,2.25
2024-03-03T04:41:20.262Z,2.22
2024-03-03T04:43:22.022Z,2.18
2024-03-03T04:45:23.806Z,2.15
2024-03-03T04:47:25.774Z,2.15
2024-03-03T04:49:27.582Z,2.17
2024-03-03T04:51:29.328Z,2.19
2024-03-03T04:53:31.157Z,2.20
2024-03-03T04:55:33.097Z,2.20
2024-03-03T04:57:34.979Z,2.19
2024-03-03T04:59:36.700Z,2.16
2024-03-03T05:01:42.195Z,2.14
2024-03-03T05:03:44.048Z,2.12
2024-03-03T05:05:45.882Z,2.09
2024-03-03T05:07:47.581Z,2.08
2024-03-03T05:09:49.816Z,2.10
2024-03-03T05:11:51.544Z,2.13
2024-03-03T05:13:54.959Z,2.15
2024-03-03T05:15:56.789Z,2.17
2024-03-03T05:17:58.643Z,2.16
2024-03-03T05:20:00.350Z,2.12
2024-03-03T05:22:02.169Z,2.10
2024-03-03T05:24:05.291Z,2.09
2024-03-03T05:26:07.183Z,2.07
2024-03-03T05:28:09.005Z,2.06
2024-03-03T05:30:11.681Z,2.06
2024-03-03T05:32:13.494Z,2.08
2024-03-03T05:34:16.569Z,2.11
2024-03-03T05:36:18.433Z,2.14
2024-03-03T05:38:20.127Z,2.19
2024-03-03T05:40:22.003Z,2.20
2024-03-03T05:42:23.857Z,2.21
2024-03-03T05:44:25.747Z,2.21
2024-03-03T05:46:27.672Z,2.21
2024-03-03T05:48:29.876Z,2.21
2024-03-03T05:50:31.679Z,2.20
2024-03-03T05:52:33.421Z,2.22
2024-03-03T05:54:35.163Z,2.27
2024-03-03T05:56:38.911Z,2.30
2024-03-03T05:58:41.125Z,2.31
2024-03-03T06:00:42.921Z,2.32
2024-03-03T06:02:44.744Z,2.32
2024-03-03T06:04:46.596Z,2.33
2024-03-03T06:06:48.433Z,2.34
2024-03-03T06:08:51.707Z,2.36
2024-03-03T06:10:53.558Z,2.37
2024-03-03T06:12:55.313Z,2.41
2024-03-03T06:14:57.195Z,2.45
2024-03-03T06:16:59.151Z,2.49
2024-03-03T06:19:00.972Z,2.51
2024-03-03T06:21:02.913Z,2.51
2024-03-03T06:23:05.328Z,2.50
2024-03-03T06:25:09.681Z,2.48
2024-03-03T06:27:13.381Z,2.48
2024-03-03T06:29:15.744Z,2.47
2024-03-03T06:31:17.721Z,2.49
2024-03-03T06:33:19.771Z,2.53
2024-03-03T06:35:21.444Z,2.60
2024-03-03T06:37:23.178Z,2.70
2024-03-03T06:39:24.866Z,2.81
2024-03-03T06:41:26.639Z,2.92
2024-03-03T06:43:28.345Z,3.02
2024-03-03T06:45:30.368Z,3.14
2024-03-03T06:47:33.437Z,3.27
2024-03-03T06:49:35.580Z,3.39
2024-03-03T06:51:37.484Z,3.46
2024-03-03T06:53:40.365Z,3.46
2024-03-03T06:55:42.147Z,3.44
2024-03-03T06:57:44.183Z,3.47
2024-03-03T06:59:46.010Z,3.48
2024-03-03T07:01:47.703Z,3.53
2024-03-03T07:03:49.438Z,3.60
2024-03-03T07:05:51.604Z,3.63
2024-03-03T07:07:53.281Z,3.62
2024-03-03T07:09:54.980Z,3.60
2024-03-03T07:11:58.398Z,3.57
2024-03-03T07:14:00.315Z,3.59
2024-03-03T07:16:02.325Z,3.59
2024-03-03T07:18:06.258Z,3.58
2024-03-03T07:20:08.833Z,3.59
2024-03-03T07:22:10.633Z,3.63
2024-03-03T07:24:13.254Z,3.67
2024-03-03T07:26:14.922Z,3.70
2024-03-03T07:28:16.699Z,3.71
2024-03-03T07:30:21.085Z,3.70
2024-03-03T07:32:24.559Z,3.69
2024-03-03T07:36:39.655Z,3.47
2024-03-03T07:38:43.007Z,3.42
2024-03-03T07:40:48.666Z,3.38
2024-03-03T07:42:50.409Z,3.36
2024-03-03T07:44:52.089Z,3.37
2024-03-03T07:46:53.773Z,3.35
2024-03-03T07:48:55.515Z,3.36
2024-03-03T07:50:57.471Z,3.37
2024-03-03T07:52:59.251Z,3.37
2024-03-03T07:55:00.973Z,3.38
2024-03-03T07:57:02.813Z,3.39
2024-03-03T07:59:06.979Z,3.41
2024-03-03T08:01:08.818Z,3.44
2024-03-03T08:03:10.650Z,3.48
2024-03-03T08:05:12.313Z,3.44
2024-03-03T08:07:14.236Z,3.34
2024-03-03T08:09:16.033Z,3.27
2024-03-03T08:11:17.813Z,3.28
2024-03-03T08:13:19.593Z,3.36
2024-03-03T08:15:22.857Z,3.43
2024-03-03T08:17:25.147Z,3.50
2024-03-03T08:19:29.067Z,3.57
2024-03-03T08:21:32.019Z,3.61
2024-03-03T08:23:33.786Z,3.60
2024-03-03T08:25:35.503Z,3.58
2024-03-03T08:27:37.251Z,3.57
2024-03-03T08:29:38.914Z,3.56
2024-03-03T08:31:43.156Z,3.54
2024-03-03T08:33:44.914Z,3.53
2024-03-03T08:35:46.583Z,3.53
2024-03-03T08:37:48.325Z,3.57
2024-03-03T08:39:50.064Z,3.64
2024-03-03T08:41:51.847Z,3.70
2024-03-03T08:43:53.546Z,3.74
2024-03-03T08:45:55.212Z,3.76
2024-03-03T08:47:56.952Z,3.77
2024-03-03T08:49:59.980Z,3.80
2024-03-03T08:52:07.050Z,3.85
2024-03-03T08:54:09.302Z,3.90
2024-03-03T08:56:10.975Z,3.95
2024-03-03T08:58:13.000Z,4.00
2024-03-03T09:00:15.344Z,4.06
2024-03-03T09:02:17.056Z,4.09
2024-03-03T09:04:18.888Z,4.06
2024-03-03T09:06:20.617Z,4.05
2024-03-03T09:08:22.354Z,4.03
2024-03-03T09:10:24.015Z,3.97
2024-03-03T09:12:25.814Z,3.95
2024-03-03T09:14:27.597Z,3.96
2024-03-03T09:16:29.508Z,3.97
2024-03-03T09:18:31.510Z,3.99
2024-03-03T09:20:33.202Z,4.01
2024-03-03T09:22:36.903Z,4.05
2024-03-03T09:24:43.499Z,4.09
2024-03-03T09:26:46.007Z,4.09
2024-03-03T09:28:47.761Z,4.08
2024-03-03T09:30:49.616Z,4.03
2024-03-03T09:32:53.768Z,3.99
2024-03-03T09:34:55.622Z,4.02
2024-03-03T09:36:57.369Z,4.07
2024-03-03T09:38:59.111Z,4.15
2024-03-03T09:41:01.358Z,4.17
2024-03-03T09:43:04.703Z,4.19
2024-03-03T09:45:13.643Z,4.21
2024-03-03T09:47:17.226Z,4.23
2024-03-03T09:49:20.394Z,4.24
2024-03-03T09:51:25.460Z,4.26
2024-03-03T09:53:28.513Z,4.30
2024-03-03T09:55:31.820Z,4.35
2024-03-03T09:57:34.221Z,4.38
2024-03-03T09:59:35.954Z,4.40
2024-03-03T10:01:40.840Z,4.42
2024-03-03T10:03:44.399Z,4.46
2024-03-03T10:05:47.034Z,4.48
2024-03-03T10:07:54.021Z,4.53
2024-03-03T10:10:06.985Z,4.57
2024-03-03T10:12:11.905Z,4.60
2024-03-03T10:14:14.184Z,4.63
2024-03-03T10:16:18.281Z,4.62
2024-03-03T10:18:22.059Z,4.60
2024-03-03T10:20:24.252Z,4.59
2024-03-03T10:22:26.437Z,4.64
2024-03-03T10:24:30.813Z,4.69
2024-03-03T10:26:37.883Z,4.73
2024-03-03T10:28:39.702Z,4.77
2024-03-03T10:30:41.741Z,4.81
2024-03-03T10:32:45.443Z,4.83
2024-03-03T10:34:58.137Z,4.86
2024-03-03T10:37:05.464Z,4.82
2024-03-03T10:39:11.019Z,4.76
2024-03-03T10:41:12.676Z,4.77
2024-03-03T10:43:14.699Z,4.77
2024-03-03T10:45:16.464Z,4.77
2024-03-03T10:47:20.512Z,4.81
2024-03-03T10:49:26.738Z,4.89
2024-03-03T10:51:28.733Z,4.95
2024-03-03T10:53:32.617Z,4.99
2024-03-03T10:55:38.054Z,5.02
2024-03-03T10:57:40.223Z,5.04
2024-03-03T10:59:43.578Z,5.03
2024-03-03T11:01:46.185Z,4.98
2024-03-03T11:03:49.220Z,4.89
2024-03-03T11:05:52.605Z,4.75
2024-03-03T11:07:55.728Z,4.68
2024-03-03T11:10:00.419Z,4.66
2024-03-03T11:12:07.316Z,4.67
2024-03-03T11:14:13.683Z,4.68
2024-03-03T11:16:15.683Z,4.69
2024-03-03T11:18:21.629Z,4.69
2024-03-03T11:20:25.367Z,4.66
2024-03-03T11:22:27.604Z,4.63
2024-03-03T11:24:36.607Z,4.60
2024-03-03T11:26:44.665Z,4.58
2024-03-03T11:28:54.298Z,4.58
2024-03-03T11:30:56.846Z,4.58
2024-03-03T11:33:00.012Z,4.59
2024-03-03T11:35:03.700Z,4.58
2024-03-03T11:37:05.953Z,4.59
2024-03-03T11:39:15.309Z,4.61
2024-03-03T11:41:21.790Z,4.63
2024-03-03T11:43:27.031Z,4.64
2024-03-03T11:45:49.465Z,4.65
2024-03-03T11:47:51.432Z,4.68
2024-03-03T11:49:53.659Z,4.69
2024-03-03T11:51:55.528Z,4.68
2024-03-03T11:54:01.363Z,4.66
2024-03-03T11:56:03.061Z,4.63
2024-03-03T11:58:06.724Z,4.57
2024-03-03T12:00:15.533Z,4.49
2024-03-03T12:02:19.216Z,4.43
2024-03-03T12:04:20.938Z,4.41
2024-03-03T12:06:27.046Z,4.43
2024-03-03T12:08:33.796Z,4.46
2024-03-03T12:10:36.264Z,4.43
2024-03-03T12:12:41.522Z,4.38
2024-03-03T12:14:43.292Z,4.29
2024-03-03T12:16:45.114Z,4.17
2024-03-03T12:18:47.291Z,4.06
2024-03-03T12:20:49.146Z,4.00
2024-03-03T12:22:52.115Z,4.00
2024-03-03T12:24:57.530Z,4.02
2024-03-03T12:26:59.563Z,4.03
2024-03-03T12:29:01.452Z,4.04
2024-03-03T12:31:03.196Z,4.02
2024-03-03T12:33:07.497Z,3.96
2024-03-03T12:35:09.916Z,3.89
2024-03-03T12:37:11.724Z,3.80
2024-03-03T12:39:13.741Z,3.72
2024-03-03T12:41:15.529Z,3.68
2024-03-03T12:43:17.682Z,3.68
2024-03-03T12:45:20.571Z,3.68
2024-03-03T12:47:22.381Z,3.67
2024-03-03T12:49:24.068Z,3.66
2024-03-03T12:51:25.985Z,3.61
2024-03-03T12:53:39.254Z,3.55
2024-03-03T12:55:42.777Z,3.49
2024-03-03T12:57:45.572Z,3.47
2024-03-03T12:59:47.912Z,3.49
2024-03-03T13:01:49.987Z,3.51
2024-03-03T13:03:54.481Z,3.55
2024-03-03T13:05:56.454Z,3.58
2024-03-03T13:07:58.726Z,3.55
2024-03-03T13:10:00.479Z,3.48
2024-03-03T13:12:05.527Z,3.44
2024-03-03T13:14:07.151Z,3.41
2024-03-03T13:16:10.838Z,3.37
2024-03-03T13:18:17.035Z,3.32
2024-03-03T13:20:28.817Z,3.28
2024-03-03T13:22:30.955Z,3.27
2024-03-03T13:24:33.649Z,3.28
2024-03-03T13:26:35.654Z,3.28
2024-03-03T13:28:38.348Z,3.27
2024-03-03T13:30:42.503Z,3.27
2024-03-03T13:32:44.213Z,3.19
2024-03-03T13:34:46.674Z,3.11
2024-03-03T13:36:48.462Z,3.07
2024-03-03T13:38:50.202Z,3.06
2024-03-03T13:40:52.175Z,3.10
2024-03-03T13:42:54.358Z,3.14
2024-03-03T13:44:56.064Z,3.16
2024-03-03T13:46:58.086Z,3.17
2024-03-03T13:48:59.787Z,3.17
2024-03-03T13:51:02.802Z,3.13
2024-03-03T13:53:05.643Z,3.09
2024-03-03T13:55:08.191Z,3.05
2024-03-03T13:57:10.762Z,3.05
2024-03-03T13:59:13.164Z,3.04
2024-03-03T14:01:17.826Z,3.01
2024-03-03T14:03:19.936Z,2.93
2024-03-03T14:05:33.469Z,2.89
2024-03-03T14:07:35.969Z,2.89
2024-03-03T14:09:37.858Z,2.88
2024-03-03T14:11:39.582Z,2.88
2024-03-03T14:13:41.300Z,2.86
2024-03-03T14:15:43.255Z,2.88
2024-03-03T14:17:45.252Z,2.85
2024-03-03T14:19:47.670Z,2.76
2024-03-03T14:21:51.377Z,2.66
2024-03-03T14:23:54.196Z,2.61
2024-03-03T14:25:57.918Z,2.58
2024-03-03T14:28:05.392Z,2.56
2024-03-03T14:30:14.779Z,2.56
2024-03-03T14:32:16.607Z,2.51
2024-03-03T14:34:19.695Z,2.49
2024-03-03T14:36:24.456Z,2.48
2024-03-03T14:38:26.311Z,2.48
2024-03-03T14:40:28.321Z,2.47
2024-03-03T14:42:30.865Z,2.48
2024-03-03T14:44:33.287Z,2.49
2024-03-03T14:46:35.279Z,2.51
2024-03-03T14:48:37.483Z,2.53
2024-03-03T14:50:39.196Z,2.56
2024-03-03T14:52:40.864Z,2.53
2024-03-03T14:54:42.525Z,2.46
2024-03-03T14:56:44.801Z,2.42
2024-03-03T14:58:46.567Z,2.41
2024-03-03T15:00:48.343Z,2.42
2024-03-03T15:02:50.913Z,2.44
2024-03-03T15:04:53.934Z,2.43
2024-03-03T15:06:55.694Z,2.40
2024-03-03T15:08:57.490Z,2.37
2024-03-03T15:11:00.247Z,2.33
2024-03-03T15:13:06.458Z,2.29
2024-03-03T15:15:09.097Z,2.20
2024-03-03T15:17:21.331Z,2.11
2024-03-03T15:19:23.490Z,2.03
2024-03-03T15:21:25.685Z,2.01
2024-03-03T15:23:27.328Z,1.99
2024-03-03T15:25:29.468Z,1.93
2024-03-03T15:27:31.626Z,1.90
2024-03-03T15:29:33.468Z,1.86
2024-03-03T15:31:35.231Z,1.84
2024-03-03T15:33:37.674Z,1.81
2024-03-03T15:35:39.810Z,1.82
2024-03-03T15:37:41.588Z,1.82
2024-03-03T15:39:43.718Z,1.82
2024-03-03T15:41:45.315Z,1.80
2024-03-03T15:43:47.270Z,1.78
2024-03-03T15:45:49.778Z,1.73
2024-03-03T15:47:51.602Z,1.70
2024-03-03T15:49:53.325Z,1.73
2024-03-03T15:51:55.028Z,1.75
2024-03-03T15:53:56.807Z,1.78
2024-03-03T15:56:01.391Z,1.81
2024-03-03T15:58:04.255Z,1.82
2024-03-03T16:00:07.869Z,1.79
2024-03-03T16:02:09.898Z,1.77
2024-03-03T16:04:11.561Z,1.77
2024-03-03T16:06:13.384Z,1.78
2024-03-03T16:08:16.969Z,1.79
2024-03-03T16:10:18.699Z,1.81
2024-03-03T16:12:20.432Z,1.83
2024-03-03T16:14:22.990Z,1.86
2024-03-03T16:16:30.538Z,1.85
2024-03-03T16:18:32.773Z,1.83
2024-03-03T16:20:34.886Z,1.81
2024-03-03T16:22:37.782Z,1.81
2024-03-03T16:24:40.456Z,1.79
2024-03-03T16:26:42.342Z,1.78
2024-03-03T16:28:44.084Z,1.78
2024-03-03T16:30:45.814Z,1.80
2024-03-03T16:32:47.818Z,1.82
2024-03-03T16:34:49.581Z,1.82
2024-03-03T16:36:51.355Z,1.81
2024-03-03T16:38:54.426Z,1.79
2024-03-03T16:40:56.991Z,1.80
2024-03-03T16:43:05.844Z,1.82
2024-03-03T16:45:08.757Z,1.84
2024-03-03T16:47:11.058Z,1.87
2024-03-03T16:49:12.933Z,1.90
2024-03-03T16:51:15.009Z,1.93
2024-03-03T16:53:16.697Z,1.95
2024-03-03T16:55:20.722Z,1.97
2024-03-03T16:57:22.540Z,1.96
2024-03-03T16:59:24.253Z,1.99
2024-03-03T17:01:26.053Z,2.00
2024-03-03T17:03:30.830Z,1.99
2024-03-03T17:05:32.916Z,2.01
2024-03-03T17:07:35.771Z,2.02
2024-03-03T17:09:37.582Z,2.02
2024-03-03T17:11:40.985Z,2.03
2024-03-03T17:13:42.651Z,2.05
2024-03-03T17:15:44.298Z,2.04
2024-03-03T17:17:46.260Z,2.06
2024-03-03T17:19:48.743Z,2.05
2024-03-03T17:21:50.923Z,2.05
2024-03-03T17:23:52.724Z,2.03
2024-03-03T17:25:54.444Z,2.00
2024-03-03T17:27:56.752Z,1.95
2024-03-03T17:29:58.417Z,1.91
2024-03-03T17:32:00.098Z,1.90
2024-03-03T17:34:01.834Z,1.88
2024-03-03T17:36:03.932Z,1.85
2024-03-03T17:38:08.196Z,1.85
2024-03-03T17:40:10.602Z,1.88
2024-03-03T17:42:12.453Z,1.91
2024-03-03T17:44:14.654Z,1.95
2024-03-03T17:46:16.405Z,1.98
2024-03-03T17:48:19.606Z,2.01
2024-03-03T17:50:21.336Z,2.07
2024-03-03T17:52:23.138Z,2.10
2024-03-03T17:54:25.170Z,2.11
2024-03-03T17:56:26.853Z,2.05
2024-03-03T17:58:28.701Z,1.99
2024-03-03T18:00:30.552Z,1.99
2024-03-03T18:02:32.263Z,1.97
2024-03-03T18:04:34.549Z,2.00
2024-03-03T18:06:36.826Z,2.04
2024-03-03T18:08:38.628Z,2.03
2024-03-03T18:10:40.417Z,2.03
2024-03-03T18:12:42.228Z,2.01
2024-03-03T18:14:43.935Z,2.06
2024-03-03T18:16:45.597Z,2.10
2024-03-03T18:18:47.334Z,2.10
2024-03-03T18:20:49.011Z,2.03
2024-03-03T18:22:50.801Z,1.98
2024-03-03T18:24:52.498Z,1.94
2024-03-03T18:26:54.188Z,1.94
2024-03-03T18:28:56.219Z,1.95
2024-03-03T18:30:58.975Z,1.93
2024-03-03T18:33:00.846Z,1.89
2024-03-03T18:35:06.971Z,1.87
2024-03-03T18:37:10.216Z,1.88
2024-03-03T18:39:12.092Z,1.91
2024-03-03T18:41:13.843Z,1.90
2024-03-03T18:43:15.495Z,1.90
2024-03-03T18:45:18.465Z,1.91
2024-03-03T18:47:20.268Z,1.89
2024-03-03T18:49:22.213Z,1.89
2024-03-03T18:51:23.993Z,1.91
2024-03-03T18:53:25.913Z,1.92
2024-03-03T18:55:27.807Z,1.92
2024-03-03T18:57:29.631Z,1.94
2024-03-03T18:59:31.386Z,1.97
2024-03-03T19:01:34.102Z,1.99
2024-03-03T19:03:36.090Z,2.01
2024-03-03T19:05:37.856Z,2.00
2024-03-03T19:07:40.749Z,2.00
2024-03-03T19:09:42.687Z,1.98
2024-03-03T19:11:44.464Z,1.95
2024-03-03T19:13:46.366Z,1.93
2024-03-03T19:15:48.078Z,1.91
2024-03-03T19:17:49.797Z,1.87
2024-03-03T19:19:51.895Z,1.87
2024-03-03T19:21:53.747Z,1.89
2024-03-03T19:23:55.653Z,1.92
2024-03-03T19:25:57.519Z,1.93
2024-03-03T19:27:59.502Z,1.95
2024-03-03T19:30:01.359Z,1.97
2024-03-03T19:32:04.060Z,2.07
2024-03-03T19:34:06.085Z,2.09
2024-03-03T19:36:08.050Z,2.07
2024-03-03T19:38:09.773Z,2.09
2024-03-03T19:40:13.337Z,2.13
2024-03-03T19:42:19.685Z,2.18
2024-03-03T19:44:21.504Z,2.22
2024-03-03T19:46:23.283Z,2.21
2024-03-03T19:48:24.986Z,2.21
2024-03-03T19:52:34.388Z,1.93
2024-03-03T19:54:38.733Z,1.82
2024-03-03T19:56:43.341Z,1.78
2024-03-03T19:58:45.203Z,1.78
2024-03-03T20:00:46.954Z,1.82
2024-03-03T20:02:49.408Z,1.84
2024-03-03T20:04:51.093Z,1.86
2024-03-03T20:06:53.100Z,1.87
2024-03-03T20:08:57.538Z,1.90
2024-03-03T20:11:00.677Z,1.90
2024-03-03T20:13:05.578Z,1.91
2024-03-03T20:15:14.430Z,1.93
2024-03-03T20:17:17.363Z,1.94
2024-03-03T20:19:19.013Z,1.93
2024-03-03T20:21:20.671Z,1.90
2024-03-03T20:23:23.402Z,1.85
2024-03-03T20:25:25.487Z,1.85
2024-03-03T20:27:27.302Z,1.88
2024-03-03T20:29:29.031Z,1.90
2024-03-03T20:31:30.828Z,1.92
2024-03-03T20:33:32.585Z,1.91
2024-03-03T20:35:34.422Z,1.92
2024-03-03T20:37:36.383Z,1.92
2024-03-03T20:39:38.313Z,1.89
2024-03-03T20:41:42.505Z,1.88
2024-03-03T20:43:44.357Z,1.88
2024-03-03T20:45:47.100Z,1.90
2024-03-03T20:47:49.099Z,1.90
2024-03-03T20:49:50.891Z,1.89
2024-03-03T20:51:52.610Z,1.88
2024-03-03T20:53:58.621Z,1.86
2024-03-03T20:56:00.754Z,1.86
2024-03-03T20:58:02.479Z,1.85
2024-03-03T21:00:08.696Z,1.84
2024-03-03T21:02:11.163Z,1.82
2024-03-03T21:04:12.948Z,1.82
2024-03-03T21:06:14.793Z,1.80
2024-03-03T21:08:16.540Z,1.78
2024-03-03T21:10:22.762Z,1.77
2024-03-03T21:12:24.960Z,1.74
2024-03-03T21:14:28.425Z,1.72
2024-03-03T21:16:30.185Z,1.69
2024-03-03T21:18:31.936Z,1.68
2024-03-03T21:20:33.596Z,1.66
2024-03-03T21:22:35.781Z,1.66
2024-03-03T21:24:41.493Z,1.66
2024-03-03T21:26:47.465Z,1.66
2024-03-03T21:28:49.361Z,1.66
2024-03-03T21:30:51.544Z,1.64
2024-03-03T21:32:53.399Z,1.63
2024-03-03T21:34:55.098Z,1.63
2024-03-03T21:36:57.720Z,1.62
2024-03-03T21:38:59.388Z,1.62
2024-03-03T21:41:03.654Z,1.62
2024-03-03T21:43:12.514Z,1.61
2024-03-03T21:45:14.461Z,1.60
2024-03-03T21:47:18.827Z,1.58
2024-03-03T21:49:20.718Z,1.57
2024-03-03T21:51:22.481Z,1.57
2024-03-03T21:53:24.129Z,1.57
2024-03-03T21:55:26.020Z,1.59
2024-03-03T21:57:27.752Z,1.60
2024-03-03T21:59:29.426Z,1.62
2024-03-03T22:01:31.243Z,1.60
2024-03-03T22:03:33.680Z,1.55
2024-03-03T22:05:35.334Z,1.48
2024-03-03T22:07:38.175Z,1.43
2024-03-03T22:09:40.901Z,1.41
2024-03-03T22:11:42.713Z,1.42
2024-03-03T22:13:44.430Z,1.44
2024-03-03T22:15:46.305Z,1.45
2024-03-03T22:17:48.137Z,1.46
2024-03-03T22:19:50.032Z,1.46
2024-03-03T22:21:51.725Z,1.47
2024-03-03T22:23:54.187Z,1.42
2024-03-03T22:25:55.878Z,1.37
2024-03-03T22:27:57.609Z,1.33
2024-03-03T22:29:59.462Z,1.31
2024-03-03T22:32:01.171Z,1.30
2024-03-03T22:34:03.855Z,1.33
2024-03-03T22:36:06.212Z,1.36
2024-03-03T22:38:07.860Z,1.40
2024-03-03T22:40:11.892Z,1.42
2024-03-03T22:42:13.803Z,1.43
2024-03-03T22:44:15.946Z,1.43
2024-03-03T22:46:17.853Z,1.44
2024-03-03T22:48:19.626Z,1.43
2024-03-03T22:50:24.149Z,1.41
2024-03-03T22:52:27.069Z,1.38
2024-03-03T22:54:28.788Z,1.39
2024-03-03T22:56:30.682Z,1.42
2024-03-03T22:58:32.434Z,1.44
2024-03-03T23:00:39.611Z,1.47
2024-03-03T23:02:41.854Z,1.50
2024-03-03T23:04:47.450Z,1.50
2024-03-03T23:06:50.585Z,1.49
2024-03-03T23:08:52.395Z,1.48
2024-03-03T23:10:54.085Z,1.46
2024-03-03T23:12:55.767Z,1.42
2024-03-03T23:14:57.527Z,1.43
2024-03-03T23:16:59.287Z,1.44
2024-03-03T23:19:00.986Z,1.46
2024-03-03T23:21:02.656Z,1.44
2024-03-03T23:23:04.510Z,1.39
2024-03-03T23:25:06.467Z,1.37
2024-03-03T23:27:08.195Z,1.35
2024-03-03T23:29:11.791Z,1.31
2024-03-03T23:31:13.941Z,1.27
2024-03-03T23:33:15.790Z,1.25
2024-03-03T23:35:18.520Z,1.24
2024-03-03T23:37:20.377Z,1.25
2024-03-03T23:39:22.298Z,1.27
2024-03-03T23:41:24.071Z,1.31
2024-03-03T23:43:26.008Z,1.35
2024-03-03T23:45:28.533Z,1.38
2024-03-03T23:47:31.154Z,1.43
2024-03-03T23:49:32.903Z,1.48
2024-03-03T23:51:34.703Z,1.52
2024-03-03T23:53:36.369Z,1.53
2024-03-03T23:55:38.585Z,1.53
2024-03-03T23:57:40.325Z,1.48
2024-03-03T23:59:41.942Z,1.45
